sensor_id;sensor_type;location;lat;lon;timestamp;temperature;humidity
39345;DHT22;25061;51.954;6.996;2022-09-09T00:02:21;16.40;99.90
39345;DHT22;25061;51.954;6.996;2022-09-09T00:05:16;16.70;99.90
39345;DHT22;25061;51.954;6.996;2022-09-09T00:07:47;16.60;99.90
39345;DHT22;25061;51.954;6.996;2022-09-09T00:10:30;16.70;99.90
39345;DHT22;25061;51.954;6.996;2022-09-09T00:13:13;16.50;99.90
39345;DHT22;25061;51.954;6.996;2022-09-09T00:18:44;16.00;99.90
39345;DHT22;25061;51.954;6.996;2022-09-09T00:21:17;15.90;99.90
39345;DHT22;25061;51.954;6.996;2022-09-09T00:23:52;15.60;99.90
39345;DHT22;25061;51.954;6.996;2022-09-09T00:26:32;15.70;99.90
39345;DHT22;25061;51.954;6.996;2022-09-09T00:31:31;15.70;99.90
39345;DHT22;25061;51.954;6.996;2022-09-09T00:34:03;15.50;99.90
39345;DHT22;25061;51.954;6.996;2022-09-09T00:36:32;15.60;99.90
39345;DHT22;25061;51.954;6.996;2022-09-09T00:39:00;15.90;99.90
39345;DHT22;25061;51.954;6.996;2022-09-09T00:44:31;15.90;99.90
39345;DHT22;25061;51.954;6.996;2022-09-09T00:49:59;15.80;99.90
39345;DHT22;25061;51.954;6.996;2022-09-09T00:55:30;15.80;99.90
39345;DHT22;25061;51.954;6.996;2022-09-09T00:57:59;15.60;99.90
39345;DHT22;25061;51.954;6.996;2022-09-09T01:00:32;15.80;99.90
39345;DHT22;25061;51.954;6.996;2022-09-09T01:06:16;15.40;99.90
39345;DHT22;25061;51.954;6.996;2022-09-09T01:11:28;16.30;99.90
39345;DHT22;25061;51.954;6.996;2022-09-09T01:14:16;16.00;99.90
39345;DHT22;25061;51.954;6.996;2022-09-09T01:16:45;15.60;99.90
39345;DHT22;25061;51.954;6.996;2022-09-09T01:19:20;15.30;99.90
39345;DHT22;25061;51.954;6.996;2022-09-09T01:22:10;15.10;99.90
39345;DHT22;25061;51.954;6.996;2022-09-09T01:27:36;15.10;99.90
39345;DHT22;25061;51.954;6.996;2022-09-09T01:30:11;15.00;99.90
39345;DHT22;25061;51.954;6.996;2022-09-09T01:32:49;15.10;99.90
39345;DHT22;25061;51.954;6.996;2022-09-09T01:35:31;15.60;99.90
39345;DHT22;25061;51.954;6.996;2022-09-09T01:37:58;15.60;99.90
39345;DHT22;25061;51.954;6.996;2022-09-09T01:40:24;15.20;99.90
39345;DHT22;25061;51.954;6.996;2022-09-09T01:42:51;15.50;99.90
39345;DHT22;25061;51.954;6.996;2022-09-09T01:45:17;15.30;99.90
39345;DHT22;25061;51.954;6.996;2022-09-09T01:47:43;15.90;99.90
39345;DHT22;25061;51.954;6.996;2022-09-09T01:50:12;15.70;99.90
39345;DHT22;25061;51.954;6.996;2022-09-09T01:52:38;15.60;99.90
39345;DHT22;25061;51.954;6.996;2022-09-09T01:55:05;15.20;99.90
39345;DHT22;25061;51.954;6.996;2022-09-09T01:57:46;15.40;99.90
39345;DHT22;25061;51.954;6.996;2022-09-09T02:00:15;15.40;99.90
39345;DHT22;25061;51.954;6.996;2022-09-09T02:02:48;15.10;99.90
39345;DHT22;25061;51.954;6.996;2022-09-09T02:05:37;15.10;99.90
39345;DHT22;25061;51.954;6.996;2022-09-09T02:08:08;15.10;99.90
39345;DHT22;25061;51.954;6.996;2022-09-09T02:10:47;15.10;99.90
39345;DHT22;25061;51.954;6.996;2022-09-09T02:13:18;15.50;99.90
39345;DHT22;25061;51.954;6.996;2022-09-09T02:18:44;15.20;99.90
39345;DHT22;25061;51.954;6.996;2022-09-09T02:21:12;15.50;99.90
39345;DHT22;25061;51.954;6.996;2022-09-09T02:23:42;15.50;99.90
39345;DHT22;25061;51.954;6.996;2022-09-09T02:26:10;15.20;99.90
39345;DHT22;25061;51.954;6.996;2022-09-09T02:28:38;15.30;99.90
39345;DHT22;25061;51.954;6.996;2022-09-09T02:31:05;15.30;99.90
39345;DHT22;25061;51.954;6.996;2022-09-09T02:33:37;15.40;99.90
39345;DHT22;25061;51.954;6.996;2022-09-09T02:36:03;15.60;99.90
39345;DHT22;25061;51.954;6.996;2022-09-09T02:38:35;15.00;99.90
39345;DHT22;25061;51.954;6.996;2022-09-09T02:41:02;15.10;99.90
39345;DHT22;25061;51.954;6.996;2022-09-09T02:43:33;15.70;99.90
39345;DHT22;25061;51.954;6.996;2022-09-09T02:48:45;15.80;99.90
39345;DHT22;25061;51.954;6.996;2022-09-09T02:54:10;15.30;99.90
39345;DHT22;25061;51.954;6.996;2022-09-09T02:56:40;15.20;99.90
39345;DHT22;25061;51.954;6.996;2022-09-09T02:59:07;15.30;99.90
39345;DHT22;25061;51.954;6.996;2022-09-09T03:01:33;15.10;99.90
39345;DHT22;25061;51.954;6.996;2022-09-09T03:03:58;14.80;99.90
39345;DHT22;25061;51.954;6.996;2022-09-09T03:06:24;14.90;99.90
39345;DHT22;25061;51.954;6.996;2022-09-09T03:08:49;15.30;99.90
39345;DHT22;25061;51.954;6.996;2022-09-09T03:11:16;15.50;99.90
39345;DHT22;25061;51.954;6.996;2022-09-09T03:13:41;15.40;99.90
39345;DHT22;25061;51.954;6.996;2022-09-09T03:16:07;15.30;99.90
39345;DHT22;25061;51.954;6.996;2022-09-09T03:18:32;15.50;99.90
39345;DHT22;25061;51.954;6.996;2022-09-09T03:21:00;15.10;99.90
39345;DHT22;25061;51.954;6.996;2022-09-09T03:23:25;15.20;99.90
39345;DHT22;25061;51.954;6.996;2022-09-09T03:25:51;15.50;99.90
39345;DHT22;25061;51.954;6.996;2022-09-09T03:28:17;15.10;99.90
39345;DHT22;25061;51.954;6.996;2022-09-09T03:30:43;15.10;99.90
39345;DHT22;25061;51.954;6.996;2022-09-09T03:33:08;15.10;99.90
39345;DHT22;25061;51.954;6.996;2022-09-09T03:35:34;15.40;99.90
39345;DHT22;25061;51.954;6.996;2022-09-09T03:37:59;15.10;99.90
39345;DHT22;25061;51.954;6.996;2022-09-09T03:40:26;15.40;99.90
39345;DHT22;25061;51.954;6.996;2022-09-09T03:42:52;15.30;99.90
39345;DHT22;25061;51.954;6.996;2022-09-09T03:45:17;15.40;99.90
39345;DHT22;25061;51.954;6.996;2022-09-09T03:47:43;15.30;99.90
39345;DHT22;25061;51.954;6.996;2022-09-09T03:50:09;15.70;99.90
39345;DHT22;25061;51.954;6.996;2022-09-09T03:52:37;15.30;99.90
39345;DHT22;25061;51.954;6.996;2022-09-09T03:55:04;15.50;99.90
39345;DHT22;25061;51.954;6.996;2022-09-09T03:57:30;15.30;99.90
39345;DHT22;25061;51.954;6.996;2022-09-09T03:59:56;15.20;99.90
39345;DHT22;25061;51.954;6.996;2022-09-09T04:02:21;15.10;99.90
39345;DHT22;25061;51.954;6.996;2022-09-09T04:04:47;14.90;99.90
39345;DHT22;25061;51.954;6.996;2022-09-09T04:07:12;14.60;99.90
39345;DHT22;25061;51.954;6.996;2022-09-09T04:09:38;14.90;99.90
39345;DHT22;25061;51.954;6.996;2022-09-09T04:12:04;15.10;99.90
39345;DHT22;25061;51.954;6.996;2022-09-09T04:14:29;15.10;99.90
39345;DHT22;25061;51.954;6.996;2022-09-09T04:16:55;15.00;99.90
39345;DHT22;25061;51.954;6.996;2022-09-09T04:19:23;14.80;99.90
39345;DHT22;25061;51.954;6.996;2022-09-09T04:21:49;14.80;99.90
39345;DHT22;25061;51.954;6.996;2022-09-09T04:24:17;14.70;99.90
39345;DHT22;25061;51.954;6.996;2022-09-09T04:26:43;14.80;99.90
39345;DHT22;25061;51.954;6.996;2022-09-09T04:29:08;14.90;99.90
39345;DHT22;25061;51.954;6.996;2022-09-09T04:31:34;14.90;99.90
39345;DHT22;25061;51.954;6.996;2022-09-09T04:34:00;14.80;99.90
39345;DHT22;25061;51.954;6.996;2022-09-09T04:36:31;14.90;99.90
39345;DHT22;25061;51.954;6.996;2022-09-09T04:38:57;14.90;99.90
39345;DHT22;25061;51.954;6.996;2022-09-09T04:41:22;15.20;99.90
39345;DHT22;25061;51.954;6.996;2022-09-09T04:43:49;15.20;99.90
39345;DHT22;25061;51.954;6.996;2022-09-09T04:46:15;15.40;99.90
39345;DHT22;25061;51.954;6.996;2022-09-09T04:48:42;15.40;99.90
39345;DHT22;25061;51.954;6.996;2022-09-09T04:51:11;15.30;99.90
39345;DHT22;25061;51.954;6.996;2022-09-09T04:53:37;15.10;99.90
39345;DHT22;25061;51.954;6.996;2022-09-09T04:56:07;14.90;99.90
39345;DHT22;25061;51.954;6.996;2022-09-09T04:58:33;15.00;99.90
39345;DHT22;25061;51.954;6.996;2022-09-09T05:01:22;15.10;99.90
39345;DHT22;25061;51.954;6.996;2022-09-09T05:03:49;15.10;99.90
39345;DHT22;25061;51.954;6.996;2022-09-09T05:06:19;14.90;99.90
39345;DHT22;25061;51.954;6.996;2022-09-09T05:08:45;14.80;99.90
39345;DHT22;25061;51.954;6.996;2022-09-09T05:13:44;15.30;99.90
39345;DHT22;25061;51.954;6.996;2022-09-09T05:16:10;15.10;99.90
39345;DHT22;25061;51.954;6.996;2022-09-09T05:18:39;15.00;99.90
39345;DHT22;25061;51.954;6.996;2022-09-09T05:21:05;15.10;99.90
39345;DHT22;25061;51.954;6.996;2022-09-09T05:23:32;15.30;99.90
39345;DHT22;25061;51.954;6.996;2022-09-09T05:25:59;15.40;99.90
39345;DHT22;25061;51.954;6.996;2022-09-09T05:28:25;15.60;99.90
39345;DHT22;25061;51.954;6.996;2022-09-09T05:31:02;15.80;99.90
39345;DHT22;25061;51.954;6.996;2022-09-09T05:33:34;15.50;99.90
39345;DHT22;25061;51.954;6.996;2022-09-09T05:36:05;15.40;99.90
39345;DHT22;25061;51.954;6.996;2022-09-09T05:38:32;15.60;99.90
39345;DHT22;25061;51.954;6.996;2022-09-09T05:41:02;15.60;99.90
39345;DHT22;25061;51.954;6.996;2022-09-09T05:43:28;15.40;99.90
39345;DHT22;25061;51.954;6.996;2022-09-09T05:46:01;15.80;99.90
39345;DHT22;25061;51.954;6.996;2022-09-09T05:48:28;15.90;99.90
39345;DHT22;25061;51.954;6.996;2022-09-09T05:50:55;16.10;99.90
39345;DHT22;25061;51.954;6.996;2022-09-09T05:53:20;15.60;99.90
39345;DHT22;25061;51.954;6.996;2022-09-09T05:55:46;15.80;99.90
39345;DHT22;25061;51.954;6.996;2022-09-09T05:58:13;15.70;99.90
39345;DHT22;25061;51.954;6.996;2022-09-09T06:00:40;15.70;99.90
39345;DHT22;25061;51.954;6.996;2022-09-09T06:03:05;15.70;99.90
39345;DHT22;25061;51.954;6.996;2022-09-09T06:05:31;15.90;99.90
39345;DHT22;25061;51.954;6.996;2022-09-09T06:07:56;15.90;99.90
39345;DHT22;25061;51.954;6.996;2022-09-09T06:10:22;16.30;99.90
39345;DHT22;25061;51.954;6.996;2022-09-09T06:12:48;16.70;99.90
39345;DHT22;25061;51.954;6.996;2022-09-09T06:15:13;16.30;99.90
39345;DHT22;25061;51.954;6.996;2022-09-09T06:17:39;16.10;99.90
39345;DHT22;25061;51.954;6.996;2022-09-09T06:20:05;15.90;99.90
39345;DHT22;25061;51.954;6.996;2022-09-09T06:22:31;16.00;99.90
39345;DHT22;25061;51.954;6.996;2022-09-09T06:24:56;16.10;99.90
39345;DHT22;25061;51.954;6.996;2022-09-09T06:27:22;16.30;99.90
39345;DHT22;25061;51.954;6.996;2022-09-09T06:29:48;16.10;99.90
39345;DHT22;25061;51.954;6.996;2022-09-09T06:32:14;16.30;99.90
39345;DHT22;25061;51.954;6.996;2022-09-09T06:34:39;16.20;99.90
39345;DHT22;25061;51.954;6.996;2022-09-09T06:37:05;16.10;99.90
39345;DHT22;25061;51.954;6.996;2022-09-09T06:39:32;16.10;99.90
39345;DHT22;25061;51.954;6.996;2022-09-09T06:41:57;16.10;99.90
39345;DHT22;25061;51.954;6.996;2022-09-09T06:44:24;16.50;99.90
39345;DHT22;25061;51.954;6.996;2022-09-09T06:46:52;16.70;99.90
39345;DHT22;25061;51.954;6.996;2022-09-09T06:49:17;16.80;99.90
39345;DHT22;25061;51.954;6.996;2022-09-09T06:51:43;17.30;99.90
39345;DHT22;25061;51.954;6.996;2022-09-09T06:54:11;18.90;99.90
39345;DHT22;25061;51.954;6.996;2022-09-09T06:56:39;21.20;99.90
39345;DHT22;25061;51.954;6.996;2022-09-09T06:59:09;19.70;99.90
39345;DHT22;25061;51.954;6.996;2022-09-09T07:01:37;18.70;99.90
39345;DHT22;25061;51.954;6.996;2022-09-09T07:04:04;18.40;99.90
39345;DHT22;25061;51.954;6.996;2022-09-09T07:06:34;18.20;99.90
39345;DHT22;25061;51.954;6.996;2022-09-09T07:09:03;20.30;99.90
39345;DHT22;25061;51.954;6.996;2022-09-09T07:11:31;19.00;99.90
39345;DHT22;25061;51.954;6.996;2022-09-09T07:13:58;18.00;99.90
39345;DHT22;25061;51.954;6.996;2022-09-09T07:16:24;17.90;99.90
39345;DHT22;25061;51.954;6.996;2022-09-09T07:18:51;17.60;99.90
39345;DHT22;25061;51.954;6.996;2022-09-09T07:21:18;17.50;99.90
39345;DHT22;25061;51.954;6.996;2022-09-09T07:23:44;17.60;99.90
39345;DHT22;25061;51.954;6.996;2022-09-09T07:26:11;17.90;99.90
39345;DHT22;25061;51.954;6.996;2022-09-09T07:28:37;17.90;99.90
39345;DHT22;25061;51.954;6.996;2022-09-09T07:31:04;17.50;99.90
39345;DHT22;25061;51.954;6.996;2022-09-09T07:33:31;17.30;99.90
39345;DHT22;25061;51.954;6.996;2022-09-09T07:36:24;17.30;99.90
39345;DHT22;25061;51.954;6.996;2022-09-09T07:39:11;17.60;99.90
39345;DHT22;25061;51.954;6.996;2022-09-09T07:41:47;17.80;99.90
39345;DHT22;25061;51.954;6.996;2022-09-09T07:44:19;18.50;99.90
39345;DHT22;25061;51.954;6.996;2022-09-09T07:46:47;18.50;99.90
39345;DHT22;25061;51.954;6.996;2022-09-09T07:49:13;18.50;99.90
39345;DHT22;25061;51.954;6.996;2022-09-09T07:51:41;18.50;99.90
39345;DHT22;25061;51.954;6.996;2022-09-09T07:54:10;18.40;99.90
39345;DHT22;25061;51.954;6.996;2022-09-09T07:56:37;18.40;99.90
39345;DHT22;25061;51.954;6.996;2022-09-09T07:59:03;17.80;99.90
39345;DHT22;25061;51.954;6.996;2022-09-09T08:01:34;17.80;99.90
39345;DHT22;25061;51.954;6.996;2022-09-09T08:04:12;17.70;99.90
39345;DHT22;25061;51.954;6.996;2022-09-09T08:06:43;17.80;99.90
39345;DHT22;25061;51.954;6.996;2022-09-09T08:09:10;18.40;99.90
39345;DHT22;25061;51.954;6.996;2022-09-09T08:11:36;18.60;99.90
39345;DHT22;25061;51.954;6.996;2022-09-09T08:14:03;18.20;99.90
39345;DHT22;25061;51.954;6.996;2022-09-09T08:16:31;18.00;99.90
39345;DHT22;25061;51.954;6.996;2022-09-09T08:18:57;18.40;99.90
39345;DHT22;25061;51.954;6.996;2022-09-09T08:21:28;18.40;99.90
39345;DHT22;25061;51.954;6.996;2022-09-09T08:23:56;18.50;99.90
39345;DHT22;25061;51.954;6.996;2022-09-09T08:26:27;18.50;99.90
39345;DHT22;25061;51.954;6.996;2022-09-09T08:28:55;18.60;99.90
39345;DHT22;25061;51.954;6.996;2022-09-09T08:31:31;18.90;99.90
39345;DHT22;25061;51.954;6.996;2022-09-09T08:33:57;18.90;99.90
39345;DHT22;25061;51.954;6.996;2022-09-09T08:36:27;18.60;99.90
39345;DHT22;25061;51.954;6.996;2022-09-09T08:38:55;18.50;99.90
39345;DHT22;25061;51.954;6.996;2022-09-09T08:43:48;18.40;99.90
39345;DHT22;25061;51.954;6.996;2022-09-09T08:46:27;18.20;99.90
39345;DHT22;25061;51.954;6.996;2022-09-09T08:49:02;18.20;99.90
39345;DHT22;25061;51.954;6.996;2022-09-09T08:51:31;18.30;99.90
39345;DHT22;25061;51.954;6.996;2022-09-09T08:54:01;18.40;99.90
39345;DHT22;25061;51.954;6.996;2022-09-09T08:56:31;18.30;99.90
39345;DHT22;25061;51.954;6.996;2022-09-09T08:58:59;18.40;99.90
39345;DHT22;25061;51.954;6.996;2022-09-09T09:04:42;18.20;99.90
39345;DHT22;25061;51.954;6.996;2022-09-09T09:10:34;18.20;99.90
39345;DHT22;25061;51.954;6.996;2022-09-09T09:13:11;18.20;99.90
39345;DHT22;25061;51.954;6.996;2022-09-09T09:15:41;18.60;99.90
39345;DHT22;25061;51.954;6.996;2022-09-09T09:18:11;18.60;99.90
39345;DHT22;25061;51.954;6.996;2022-09-09T09:21:53;19.00;99.90
39345;DHT22;25061;51.954;6.996;2022-09-09T09:23:57;20.00;99.90
39345;DHT22;25061;51.954;6.996;2022-09-09T09:26:33;21.60;99.90
39345;DHT22;25061;51.954;6.996;2022-09-09T09:29:03;22.00;99.90
39345;DHT22;25061;51.954;6.996;2022-09-09T09:31:34;22.20;99.90
39345;DHT22;25061;51.954;6.996;2022-09-09T09:34:00;21.60;99.90
39345;DHT22;25061;51.954;6.996;2022-09-09T09:36:38;21.40;99.90
39345;DHT22;25061;51.954;6.996;2022-09-09T09:39:04;20.90;99.90
39345;DHT22;25061;51.954;6.996;2022-09-09T09:41:38;20.20;99.90
39345;DHT22;25061;51.954;6.996;2022-09-09T09:44:18;19.70;99.90
39345;DHT22;25061;51.954;6.996;2022-09-09T09:46:46;19.80;99.90
39345;DHT22;25061;51.954;6.996;2022-09-09T09:49:12;20.50;99.90
39345;DHT22;25061;51.954;6.996;2022-09-09T09:51:39;20.90;99.90
39345;DHT22;25061;51.954;6.996;2022-09-09T09:54:28;20.70;99.90
39345;DHT22;25061;51.954;6.996;2022-09-09T09:56:54;20.30;99.90
39345;DHT22;25061;51.954;6.996;2022-09-09T10:01:52;20.00;99.90
39345;DHT22;25061;51.954;6.996;2022-09-09T10:04:21;20.20;99.90
39345;DHT22;25061;51.954;6.996;2022-09-09T10:06:49;20.30;99.90
39345;DHT22;25061;51.954;6.996;2022-09-09T10:09:29;20.00;99.90
39345;DHT22;25061;51.954;6.996;2022-09-09T10:12:19;19.70;99.90
39345;DHT22;25061;51.954;6.996;2022-09-09T10:24:03;19.00;99.90
39345;DHT22;25061;51.954;6.996;2022-09-09T10:26:53;18.90;99.90
39345;DHT22;25061;51.954;6.996;2022-09-09T10:30:02;19.00;99.90
39345;DHT22;25061;51.954;6.996;2022-09-09T10:38:13;18.80;99.90
39345;DHT22;25061;51.954;6.996;2022-09-09T10:49:11;19.00;99.90
39345;DHT22;25061;51.954;6.996;2022-09-09T10:52:00;19.00;99.90
39345;DHT22;25061;51.954;6.996;2022-09-09T10:57:36;19.10;99.90
39345;DHT22;25061;51.954;6.996;2022-09-09T11:00:15;19.70;99.90
39345;DHT22;25061;51.954;6.996;2022-09-09T11:02:42;21.50;99.90
39345;DHT22;25061;51.954;6.996;2022-09-09T11:05:27;22.00;99.90
39345;DHT22;25061;51.954;6.996;2022-09-09T11:16:14;22.70;99.90
39345;DHT22;25061;51.954;6.996;2022-09-09T11:18:42;21.50;99.90
39345;DHT22;25061;51.954;6.996;2022-09-09T11:21:18;21.10;99.90
39345;DHT22;25061;51.954;6.996;2022-09-09T11:23:59;20.80;99.90
39345;DHT22;25061;51.954;6.996;2022-09-09T11:26:33;20.40;99.90
39345;DHT22;25061;51.954;6.996;2022-09-09T11:29:09;20.00;99.90
39345;DHT22;25061;51.954;6.996;2022-09-09T11:31:57;20.00;99.90
39345;DHT22;25061;51.954;6.996;2022-09-09T11:40:18;19.70;99.90
39345;DHT22;25061;51.954;6.996;2022-09-09T11:42:46;19.60;99.90
39345;DHT22;25061;51.954;6.996;2022-09-09T11:45:24;19.50;99.90
39345;DHT22;25061;51.954;6.996;2022-09-09T11:47:54;19.50;99.90
39345;DHT22;25061;51.954;6.996;2022-09-09T11:52:47;19.60;99.90
39345;DHT22;25061;51.954;6.996;2022-09-09T11:57:58;19.60;99.90
39345;DHT22;25061;51.954;6.996;2022-09-09T12:00:35;19.70;99.90
39345;DHT22;25061;51.954;6.996;2022-09-09T12:03:04;19.70;99.90
39345;DHT22;25061;51.954;6.996;2022-09-09T12:05:56;19.60;99.90
39345;DHT22;25061;51.954;6.996;2022-09-09T12:08:27;19.70;99.90
39345;DHT22;25061;51.954;6.996;2022-09-09T12:10:58;19.70;99.90
39345;DHT22;25061;51.954;6.996;2022-09-09T12:13:26;19.70;99.90
39345;DHT22;25061;51.954;6.996;2022-09-09T12:15:57;19.80;99.90
39345;DHT22;25061;51.954;6.996;2022-09-09T12:18:25;19.90;99.90
39345;DHT22;25061;51.954;6.996;2022-09-09T12:21:06;19.40;99.90
39345;DHT22;25061;51.954;6.996;2022-09-09T12:23:52;19.70;99.90
39345;DHT22;25061;51.954;6.996;2022-09-09T12:32:11;19.40;99.90
39345;DHT22;25061;51.954;6.996;2022-09-09T12:34:43;19.60;99.90
39345;DHT22;25061;51.954;6.996;2022-09-09T12:40:03;20.00;99.90
39345;DHT22;25061;51.954;6.996;2022-09-09T12:42:29;20.00;99.90
39345;DHT22;25061;51.954;6.996;2022-09-09T12:45:03;19.80;99.90
39345;DHT22;25061;51.954;6.996;2022-09-09T12:47:40;19.60;99.90
39345;DHT22;25061;51.954;6.996;2022-09-09T12:50:22;19.80;99.90
39345;DHT22;25061;51.954;6.996;2022-09-09T12:52:49;19.80;99.90
39345;DHT22;25061;51.954;6.996;2022-09-09T12:55:18;19.70;99.90
39345;DHT22;25061;51.954;6.996;2022-09-09T12:57:48;19.50;99.90
39345;DHT22;25061;51.954;6.996;2022-09-09T13:00:24;19.50;99.90
39345;DHT22;25061;51.954;6.996;2022-09-09T13:03:16;19.60;99.90
39345;DHT22;25061;51.954;6.996;2022-09-09T13:05:42;19.30;99.90
39345;DHT22;25061;51.954;6.996;2022-09-09T13:08:10;19.60;99.90
39345;DHT22;25061;51.954;6.996;2022-09-09T13:11:01;19.90;99.90
39345;DHT22;25061;51.954;6.996;2022-09-09T13:13:30;19.70;99.90
39345;DHT22;25061;51.954;6.996;2022-09-09T13:15:59;19.80;99.90
39345;DHT22;25061;51.954;6.996;2022-09-09T13:18:34;20.00;99.90
39345;DHT22;25061;51.954;6.996;2022-09-09T13:21:00;20.00;99.90
39345;DHT22;25061;51.954;6.996;2022-09-09T13:23:29;20.00;99.90
39345;DHT22;25061;51.954;6.996;2022-09-09T13:25:57;19.90;99.90
39345;DHT22;25061;51.954;6.996;2022-09-09T13:28:27;19.70;99.90
39345;DHT22;25061;51.954;6.996;2022-09-09T13:31:03;19.40;99.90
39345;DHT22;25061;51.954;6.996;2022-09-09T13:33:35;19.10;99.90
39345;DHT22;25061;51.954;6.996;2022-09-09T13:36:09;18.80;99.90
39345;DHT22;25061;51.954;6.996;2022-09-09T13:38:38;18.30;99.90
39345;DHT22;25061;51.954;6.996;2022-09-09T13:41:08;18.40;99.90
39345;DHT22;25061;51.954;6.996;2022-09-09T13:43:43;18.30;99.90
39345;DHT22;25061;51.954;6.996;2022-09-09T13:46:35;18.00;99.90
39345;DHT22;25061;51.954;6.996;2022-09-09T13:51:39;17.50;99.90
39345;DHT22;25061;51.954;6.996;2022-09-09T13:54:06;17.40;99.90
39345;DHT22;25061;51.954;6.996;2022-09-09T13:56:35;17.40;99.90
39345;DHT22;25061;51.954;6.996;2022-09-09T13:59:01;17.00;99.90
39345;DHT22;25061;51.954;6.996;2022-09-09T14:01:27;17.00;99.90
39345;DHT22;25061;51.954;6.996;2022-09-09T14:03:54;16.90;99.90
39345;DHT22;25061;51.954;6.996;2022-09-09T14:06:25;17.00;99.90
39345;DHT22;25061;51.954;6.996;2022-09-09T14:08:51;17.50;99.90
39345;DHT22;25061;51.954;6.996;2022-09-09T14:11:18;17.60;99.90
39345;DHT22;25061;51.954;6.996;2022-09-09T14:13:43;17.70;99.90
39345;DHT22;25061;51.954;6.996;2022-09-09T14:16:09;18.00;99.90
39345;DHT22;25061;51.954;6.996;2022-09-09T14:18:35;18.70;99.90
39345;DHT22;25061;51.954;6.996;2022-09-09T14:21:01;18.40;99.90
39345;DHT22;25061;51.954;6.996;2022-09-09T14:23:28;18.60;99.90
39345;DHT22;25061;51.954;6.996;2022-09-09T14:25:54;18.70;99.90
39345;DHT22;25061;51.954;6.996;2022-09-09T14:28:20;18.80;99.90
39345;DHT22;25061;51.954;6.996;2022-09-09T14:33:56;19.20;99.90
39345;DHT22;25061;51.954;6.996;2022-09-09T14:36:22;19.40;99.90
39345;DHT22;25061;51.954;6.996;2022-09-09T14:38:48;19.50;99.90
39345;DHT22;25061;51.954;6.996;2022-09-09T14:41:15;19.30;99.90
39345;DHT22;25061;51.954;6.996;2022-09-09T14:43:45;19.20;99.90
39345;DHT22;25061;51.954;6.996;2022-09-09T14:46:13;19.40;99.90
39345;DHT22;25061;51.954;6.996;2022-09-09T14:48:40;19.40;99.90
39345;DHT22;25061;51.954;6.996;2022-09-09T14:51:12;19.30;99.90
39345;DHT22;25061;51.954;6.996;2022-09-09T14:53:39;19.30;99.90
39345;DHT22;25061;51.954;6.996;2022-09-09T14:56:13;19.10;99.90
39345;DHT22;25061;51.954;6.996;2022-09-09T14:58:39;19.10;99.90
39345;DHT22;25061;51.954;6.996;2022-09-09T15:01:07;18.80;99.90
39345;DHT22;25061;51.954;6.996;2022-09-09T15:03:36;18.90;99.90
39345;DHT22;25061;51.954;6.996;2022-09-09T15:06:12;19.20;99.90
39345;DHT22;25061;51.954;6.996;2022-09-09T15:08:42;19.10;99.90
39345;DHT22;25061;51.954;6.996;2022-09-09T15:11:12;18.90;99.90
39345;DHT22;25061;51.954;6.996;2022-09-09T15:13:39;18.80;99.90
39345;DHT22;25061;51.954;6.996;2022-09-09T15:18:35;18.80;99.90
39345;DHT22;25061;51.954;6.996;2022-09-09T15:21:05;18.60;99.90
39345;DHT22;25061;51.954;6.996;2022-09-09T15:23:36;18.50;99.90
39345;DHT22;25061;51.954;6.996;2022-09-09T15:26:02;18.40;99.90
39345;DHT22;25061;51.954;6.996;2022-09-09T15:28:28;18.40;99.90
39345;DHT22;25061;51.954;6.996;2022-09-09T15:30:54;18.30;99.90
39345;DHT22;25061;51.954;6.996;2022-09-09T15:33:21;18.40;99.90
39345;DHT22;25061;51.954;6.996;2022-09-09T15:35:47;18.50;99.90
39345;DHT22;25061;51.954;6.996;2022-09-09T15:38:15;18.30;99.90
39345;DHT22;25061;51.954;6.996;2022-09-09T15:40:42;18.20;99.90
39345;DHT22;25061;51.954;6.996;2022-09-09T15:43:08;18.20;99.90
39345;DHT22;25061;51.954;6.996;2022-09-09T15:45:36;18.30;99.90
39345;DHT22;25061;51.954;6.996;2022-09-09T15:48:02;18.30;99.90
39345;DHT22;25061;51.954;6.996;2022-09-09T15:50:28;18.30;99.90
39345;DHT22;25061;51.954;6.996;2022-09-09T15:52:55;18.10;99.90
39345;DHT22;25061;51.954;6.996;2022-09-09T15:55:21;17.80;99.90
39345;DHT22;25061;51.954;6.996;2022-09-09T15:57:47;17.60;99.90
39345;DHT22;25061;51.954;6.996;2022-09-09T16:00:13;17.60;99.90
39345;DHT22;25061;51.954;6.996;2022-09-09T16:02:39;18.00;99.90
39345;DHT22;25061;51.954;6.996;2022-09-09T16:05:05;17.90;99.90
39345;DHT22;25061;51.954;6.996;2022-09-09T16:07:31;17.80;99.90
39345;DHT22;25061;51.954;6.996;2022-09-09T16:09:56;17.70;99.90
39345;DHT22;25061;51.954;6.996;2022-09-09T16:12:22;17.90;99.90
39345;DHT22;25061;51.954;6.996;2022-09-09T16:14:47;17.70;99.90
39345;DHT22;25061;51.954;6.996;2022-09-09T16:17:13;17.60;99.90
39345;DHT22;25061;51.954;6.996;2022-09-09T16:19:39;17.40;99.90
39345;DHT22;25061;51.954;6.996;2022-09-09T16:22:05;17.10;99.90
39345;DHT22;25061;51.954;6.996;2022-09-09T16:24:31;17.20;99.90
39345;DHT22;25061;51.954;6.996;2022-09-09T16:26:57;17.10;99.90
39345;DHT22;25061;51.954;6.996;2022-09-09T16:29:23;17.00;99.90
39345;DHT22;25061;51.954;6.996;2022-09-09T16:31:49;16.90;99.90
39345;DHT22;25061;51.954;6.996;2022-09-09T16:34:16;17.00;99.90
39345;DHT22;25061;51.954;6.996;2022-09-09T16:36:47;16.80;99.90
39345;DHT22;25061;51.954;6.996;2022-09-09T16:39:15;17.10;99.90
39345;DHT22;25061;51.954;6.996;2022-09-09T16:41:42;16.80;99.90
39345;DHT22;25061;51.954;6.996;2022-09-09T16:44:11;17.10;99.90
39345;DHT22;25061;51.954;6.996;2022-09-09T16:46:40;16.80;99.90
39345;DHT22;25061;51.954;6.996;2022-09-09T16:49:08;17.10;99.90
39345;DHT22;25061;51.954;6.996;2022-09-09T16:51:39;17.00;99.90
39345;DHT22;25061;51.954;6.996;2022-09-09T16:54:06;17.10;99.90
39345;DHT22;25061;51.954;6.996;2022-09-09T16:56:34;17.00;99.90
39345;DHT22;25061;51.954;6.996;2022-09-09T16:59:04;16.90;99.90
39345;DHT22;25061;51.954;6.996;2022-09-09T17:01:39;16.70;99.90
39345;DHT22;25061;51.954;6.996;2022-09-09T17:04:14;16.60;99.90
39345;DHT22;25061;51.954;6.996;2022-09-09T17:06:41;16.60;99.90
39345;DHT22;25061;51.954;6.996;2022-09-09T17:09:09;16.90;99.90
39345;DHT22;25061;51.954;6.996;2022-09-09T17:11:36;17.10;99.90
39345;DHT22;25061;51.954;6.996;2022-09-09T17:14:04;17.00;99.90
39345;DHT22;25061;51.954;6.996;2022-09-09T17:16:31;16.80;99.90
39345;DHT22;25061;51.954;6.996;2022-09-09T17:18:57;16.70;99.90
39345;DHT22;25061;51.954;6.996;2022-09-09T17:21:27;16.60;99.90
39345;DHT22;25061;51.954;6.996;2022-09-09T17:23:54;16.60;99.90
39345;DHT22;25061;51.954;6.996;2022-09-09T17:26:22;16.60;99.90
39345;DHT22;25061;51.954;6.996;2022-09-09T17:28:48;16.40;99.90
39345;DHT22;25061;51.954;6.996;2022-09-09T17:31:16;16.30;99.90
39345;DHT22;25061;51.954;6.996;2022-09-09T17:33:46;16.40;99.90
39345;DHT22;25061;51.954;6.996;2022-09-09T17:36:24;16.40;99.90